Time;durP1;ratioP1;P1;durP2;ratioP2;P2;SDS_P1;SDS_P2;PMS_P1;PMS_P2;Temp;Humidity;BMP_temperature;BMP_pressure;BME280_temperature;BME280_humidity;BME280_pressure;Samples;Min_cycle;Max_cycle;Signal;HPM_P1;HPM_P2
2024/01/01 00:02:16;;;;;;;20.27;6.85;;;;;;;7.04;100.00;99745.66;5052195;28;20025;-94
2024/01/01 00:04:42;;;;;;;13.07;4.70;;;;;;;6.99;100.00;99735.81;5049805;28;20031;-95
2024/01/01 00:07:07;;;;;;;12.88;3.97;;;;;;;7.04;100.00;99743.81;5070470;28;20017;-93
2024/01/01 00:09:32;;;;;;;13.13;3.40;;;;;;;7.08;100.00;99752.91;5057177;28;20021;-94
2024/01/01 00:11:58;;;;;;;11.67;2.40;;;;;;;7.12;100.00;99753.16;5049848;28;20033;-93
2024/01/01 00:14:23;;;;;;;11.13;3.73;;;;;;;7.03;100.00;99760.88;5032729;28;20033;-96
2024/01/01 00:16:48;;;;;;;6.03;1.90;;;;;;;6.98;100.00;99747.50;5043727;28;20051;-94
2024/01/01 00:19:14;;;;;;;8.47;2.67;;;;;;;6.86;100.00;99765.56;5050420;28;20105;-93
2024/01/01 00:21:40;;;;;;;7.70;1.93;;;;;;;6.84;100.00;99767.69;5057447;28;20071;-95
2024/01/01 00:24:05;;;;;;;5.57;2.07;;;;;;;6.73;100.00;99757.00;5058707;28;20272;-95
2024/01/01 00:26:31;;;;;;;8.67;2.37;;;;;;;6.61;100.00;99759.84;5041486;28;20501;-95
2024/01/01 00:28:57;;;;;;;9.20;2.15;;;;;;;6.50;100.00;99766.97;5039552;28;20022;-94
2024/01/01 00:31:22;;;;;;;11.87;2.77;;;;;;;6.48;100.00;99766.44;5030812;28;20136;-93
2024/01/01 00:33:47;;;;;;;6.23;2.03;;;;;;;6.41;100.00;99749.88;5030643;28;20342;-95
2024/01/01 00:36:13;;;;;;;4.82;1.80;;;;;;;6.32;100.00;99760.19;5051693;28;20074;-95
2024/01/01 00:38:38;;;;;;;7.07;2.13;;;;;;;6.24;100.00;99767.84;5051084;28;20036;-95
2024/01/01 00:41:04;;;;;;;6.87;2.13;;;;;;;6.14;100.00;99766.72;5048839;28;20430;-94
2024/01/01 00:43:29;;;;;;;5.97;2.70;;;;;;;6.06;100.00;99756.53;5049339;28;20047;-93
2024/01/01 00:45:54;;;;;;;6.87;2.30;;;;;;;6.04;100.00;99758.63;5049940;28;20276;-94
2024/01/01 00:48:20;;;;;;;6.47;2.03;;;;;;;5.89;100.00;99769.94;5051608;28;20025;-94
2024/01/01 00:50:45;;;;;;;5.67;1.97;;;;;;;5.74;100.00;99760.78;5051074;28;20021;-94
2024/01/01 00:53:11;;;;;;;6.10;2.10;;;;;;;5.61;100.00;99772.59;5050792;28;20211;-95
2024/01/01 00:55:37;;;;;;;6.43;2.35;;;;;;;5.43;100.00;99751.69;5050983;28;20083;-96
2024/01/01 00:58:02;;;;;;;4.50;1.93;;;;;;;5.43;100.00;99751.69;5051116;28;20036;-95
2024/01/01 01:00:28;;;;;;;5.00;2.00;;;;;;;5.42;100.00;99752.72;5051032;28;20085;-94
2024/01/01 01:02:53;;;;;;;12.27;2.87;;;;;;;5.40;100.00;99754.84;5050444;28;20072;-94
2024/01/01 01:05:19;;;;;;;7.17;2.60;;;;;;;5.34;100.00;99745.19;5050054;28;20028;-95
2024/01/01 01:07:44;;;;;;;23.98;10.00;;;;;;;5.26;100.00;99751.75;5053448;28;20381;-94
2024/01/01 01:10:10;;;;;;;9.50;2.93;;;;;;;5.26;100.00;99754.41;5062898;28;20089;-96
2024/01/01 01:12:35;;;;;;;11.73;5.07;;;;;;;5.22;100.00;99755.94;5056369;28;20377;-95
2024/01/01 01:15:00;;;;;;;7.00;3.22;;;;;;;5.30;100.00;99774.91;5059817;28;20017;-95
2024/01/01 01:17:26;;;;;;;5.87;2.43;;;;;;;5.30;100.00;99758.19;5064868;28;20098;-95
2024/01/01 01:19:51;;;;;;;6.67;1.90;;;;;;;5.39;100.00;99772.63;5051596;28;20029;-94
2024/01/01 01:22:17;;;;;;;7.63;2.75;;;;;;;5.35;100.00;99749.47;5050568;28;20140;-95
2024/01/01 01:24:42;;;;;;;8.00;2.07;;;;;;;5.52;100.00;99768.78;5050938;28;20037;-96
2024/01/01 01:27:08;;;;;;;7.33;2.13;;;;;;;5.64;100.00;99775.81;5048648;28;20384;-95
2024/01/01 01:29:33;;;;;;;7.53;2.10;;;;;;;5.56;100.00;99756.59;5049083;28;20049;-94
2024/01/01 01:31:59;;;;;;;7.37;1.60;;;;;;;5.74;100.00;99778.56;5049370;28;20033;-95
2024/01/01 01:34:25;;;;;;;7.35;1.67;;;;;;;5.78;100.00;99777.03;5051110;28;20104;-94
2024/01/01 01:36:50;;;;;;;7.77;3.33;;;;;;;5.77;100.00;99767.44;5050702;28;20504;-94
2024/01/01 01:39:15;;;;;;;11.40;4.00;;;;;;;5.82;100.00;99787.94;5051512;28;20021;-95
2024/01/01 01:41:41;;;;;;;7.68;2.17;;;;;;;5.84;100.00;99777.84;5049848;28;20035;-95
2024/01/01 01:44:06;;;;;;;8.53;2.20;;;;;;;5.70;100.00;99761.50;5049398;28;20082;-96
2024/01/01 01:46:32;;;;;;;9.10;1.70;;;;;;;5.74;100.00;99775.91;5050288;28;20028;-95
2024/01/01 01:48:58;;;;;;;6.03;1.80;;;;;;;5.63;100.00;99779.53;5050115;28;20025;-95
2024/01/01 01:51:25;;;;;;;6.63;1.97;;;;;;;5.58;100.00;99774.94;5048650;28;20032;-95
2024/01/01 01:53:51;;;;;;;6.25;1.85;;;;;;;5.50;100.00;99770.88;5050334;28;20473;-96
2024/01/01 01:56:17;;;;;;;8.95;1.70;;;;;;;5.43;100.00;99764.97;5064845;28;20031;-94
2024/01/01 01:58:43;;;;;;;7.15;1.70;;;;;;;5.44;100.00;99775.34;5058373;28;20105;-94
2024/01/01 02:01:10;;;;;;;7.20;1.60;;;;;;;5.37;100.00;99752.69;5067016;28;20040;-95
2024/01/01 02:03:35;;;;;;;11.65;2.05;;;;;;;5.45;100.00;99754.91;5074573;28;20021;-93
2024/01/01 02:06:00;;;;;;;9.93;2.10;;;;;;;5.50;100.00;99776.19;5057952;28;20039;-94
2024/01/01 02:08:26;;;;;;;14.80;2.23;;;;;;;5.66;100.00;99766.53;5055268;28;20037;-94
2024/01/01 02:10:51;;;;;;;8.10;1.50;;;;;;;5.65;100.00;99764.13;5055742;28;20351;-95
2024/01/01 02:13:26;;;;;;;11.63;2.00;;;;;;;5.76;100.00;99763.97;5054103;28;20031;-93
2024/01/01 02:15:51;;;;;;;8.38;1.45;;;;;;;5.78;100.00;99779.69;5049571;28;20029;-94
2024/01/01 02:18:16;;;;;;;11.73;1.80;;;;;;;5.78;100.00;99781.50;5033510;28;20650;-94
2024/01/01 02:20:44;;;;;;;8.57;1.57;;;;;;;5.76;100.00;99777.25;5032572;28;20026;-95
2024/01/01 02:23:09;;;;;;;7.35;1.42;;;;;;;5.78;100.00;99792.97;5039833;28;20023;-96
2024/01/01 02:25:34;;;;;;;13.30;3.37;;;;;;;5.78;100.00;99782.34;5053997;28;20029;-95
2024/01/01 02:28:00;;;;;;;10.63;1.92;;;;;;;5.83;100.00;99771.75;5052526;28;20021;-95
2024/01/01 02:30:25;;;;;;;11.03;2.43;;;;;;;5.78;100.00;99785.00;5053201;28;20028;-94
2024/01/01 02:32:52;;;;;;;9.00;1.67;;;;;;;5.70;100.00;99783.59;5053262;28;20021;-95
2024/01/01 02:35:37;;;;;;;10.93;1.95;;;;;;;5.60;100.00;99778.16;5052526;28;20017;-94
2024/01/01 02:38:04;;;;;;;8.15;1.80;;;;;;;5.58;100.00;99781.06;5053864;28;20068;-95
2024/01/01 02:40:34;;;;;;;12.17;1.97;;;;;;;5.55;100.00;99802.81;5052187;28;20028;-93
2024/01/01 02:43:00;;;;;;;13.23;1.50;;;;;;;5.65;100.00;99811.97;5053955;28;20433;-93
2024/01/01 02:45:30;;;;;;;8.77;2.00;;;;;;;5.58;100.00;99799.69;5060385;28;20060;-94
2024/01/01 02:47:55;;;;;;;9.50;1.70;;;;;;;5.58;100.00;99797.03;5054246;28;20028;-95
2024/01/01 02:50:21;;;;;;;10.50;1.63;;;;;;;5.64;100.00;99803.19;5056367;28;20127;-94
2024/01/01 02:52:47;;;;;;;12.55;1.88;;;;;;;5.61;100.00;99799.19;5056623;28;20052;-94
2024/01/01 02:55:13;;;;;;;8.60;1.50;;;;;;;5.54;100.00;99801.22;5051744;28;20051;-93
2024/01/01 02:57:38;;;;;;;11.20;1.40;;;;;;;5.57;100.00;99827.31;5032868;28;20029;-94
2024/01/01 03:00:04;;;;;;;12.43;1.83;;;;;;;5.55;100.00;99821.44;5034827;28;20024;-94
2024/01/01 03:02:29;;;;;;;8.27;1.30;;;;;;;5.49;100.00;99811.78;5034277;28;20056;-95
2024/01/01 03:04:55;;;;;;;16.50;1.43;;;;;;;5.48;100.00;99810.19;5049826;28;20484;-94
2024/01/01 03:07:21;;;;;;;7.57;1.63;;;;;;;5.43;100.00;99812.78;5034366;28;20098;-94
2024/01/01 03:09:46;;;;;;;8.50;1.37;;;;;;;5.51;100.00;99812.34;5052769;28;20108;-95
2024/01/01 03:12:12;;;;;;;16.92;2.00;;;;;;;5.43;100.00;99812.78;5053140;28;20029;-95
2024/01/01 03:14:38;;;;;;;9.97;1.60;;;;;;;5.42;100.00;99803.22;5051183;28;20036;-95
2024/01/01 03:17:04;;;;;;;16.55;1.45;;;;;;;5.42;100.00;99817.28;5053836;28;20306;-95
2024/01/01 03:19:30;;;;;;;14.33;1.63;;;;;;;5.39;100.00;99817.78;5053084;28;20031;-95
2024/01/01 03:21:55;;;;;;;18.30;1.90;;;;;;;5.29;100.00;99804.38;5052369;28;20024;-94
2024/01/01 03:24:20;;;;;;;9.13;1.37;;;;;;;5.27;100.00;99828.56;5054726;28;20032;-94
2024/01/01 03:26:46;;;;;;;11.00;1.67;;;;;;;5.20;100.00;99817.31;5053812;28;20358;-93
2024/01/01 03:29:11;;;;;;;12.93;1.90;;;;;;;5.15;100.00;99811.91;5057299;28;20033;-95
2024/01/01 03:31:36;;;;;;;17.55;2.05;;;;;;;5.07;100.00;99823.78;5053279;28;20056;-95
2024/01/01 03:34:03;;;;;;;17.53;1.97;;;;;;;5.05;100.00;99830.38;5057136;28;20033;-94
2024/01/01 03:36:28;;;;;;;17.77;1.90;;;;;;;5.02;100.00;99818.41;5062688;28;20025;-95
2024/01/01 03:38:53;;;;;;;13.90;1.40;;;;;;;5.10;100.00;99833.91;5060926;28;20024;-93
2024/01/01 03:41:19;;;;;;;20.23;1.97;;;;;;;5.15;100.00;99830.50;5056737;28;20104;-95
2024/01/01 03:43:44;;;;;;;11.67;1.63;;;;;;;5.15;100.00;99823.34;5053925;28;20028;-94
2024/01/01 03:46:09;;;;;;;16.70;1.67;;;;;;;5.18;100.00;99830.03;5054802;28;20025;-93
2024/01/01 03:48:35;;;;;;;17.97;1.97;;;;;;;5.10;100.00;99831.25;5053874;28;20095;-95
2024/01/01 03:51:00;;;;;;;18.20;1.90;;;;;;;5.04;100.00;99820.81;5051531;28;20490;-94
2024/01/01 03:53:26;;;;;;;14.30;1.40;;;;;;;5.05;100.00;99831.19;5053112;28;20033;-94
2024/01/01 03:55:51;;;;;;;14.33;1.63;;;;;;;5.00;100.00;99802.72;5058091;28;20040;-95
2024/01/01 03:58:16;;;;;;;14.43;1.60;;;;;;;5.04;100.00;99821.59;5072593;28;20080;-95
2024/01/01 04:00:42;;;;;;;17.15;1.73;;;;;;;5.07;100.00;99818.47;5055347;28;20017;-93
2024/01/01 04:03:07;;;;;;;12.07;1.90;;;;;;;5.06;100.00;99824.03;5051214;28;20069;-93
2024/01/01 04:05:32;;;;;;;16.60;1.80;;;;;;;5.07;100.00;99823.78;5052561;28;20033;-93
2024/01/01 04:07:58;;;;;;;12.40;1.70;;;;;;;5.01;100.00;99822.13;5050276;28;20025;-94
2024/01/01 04:10:23;;;;;;;14.73;2.03;;;;;;;4.99;100.00;99825.00;5051968;28;20037;-93
2024/01/01 04:12:48;;;;;;;9.50;1.40;;;;;;;5.09;100.00;99837.59;5050997;28;20036;-93
2024/01/01 04:15:14;;;;;;;12.30;1.77;;;;;;;5.15;100.00;99833.97;5051967;28;20283;-93
2024/01/01 04:17:40;;;;;;;10.70;1.40;;;;;;;5.25;100.00;99830.66;5050087;28;20024;-94
2024/01/01 04:20:10;;;;;;;13.17;1.47;;;;;;;5.21;100.00;99824.22;5062839;28;20076;-92
2024/01/01 04:22:36;;;;;;;13.27;1.60;;;;;;;5.21;100.00;99829.53;5056739;28;20045;-93
2024/01/01 04:25:02;;;;;;;9.83;1.57;;;;;;;5.24;100.00;99844.16;5057475;28;20116;-91
2024/01/01 04:27:27;;;;;;;12.80;1.40;;;;;;;5.21;100.00;99829.53;5051717;28;20279;-93
2024/01/01 04:29:53;;;;;;;10.40;1.70;;;;;;;5.23;100.00;99832.75;5051417;28;20480;-94
2024/01/01 04:32:20;;;;;;;11.10;1.20;;;;;;;5.21;100.00;99834.84;5051189;28;20134;-93
2024/01/01 04:34:45;;;;;;;9.57;1.07;;;;;;;5.31;100.00;99836.84;5049584;28;20021;-93
2024/01/01 04:37:11;;;;;;;10.30;1.30;;;;;;;5.38;100.00;99845.44;5049129;28;20295;-92
2024/01/01 04:39:36;;;;;;;13.17;1.70;;;;;;;5.38;100.00;99836.63;5050066;28;20029;-92
2024/01/01 04:42:01;;;;;;;13.53;1.63;;;;;;;5.43;100.00;99840.16;5049638;28;20539;-94
2024/01/01 04:44:27;;;;;;;12.27;1.65;;;;;;;5.52;100.00;99837.06;5051469;28;20059;-93
2024/01/01 04:46:52;;;;;;;8.27;1.90;;;;;;;5.49;100.00;99830.38;5050198;28;20111;-93
2024/01/01 04:49:18;;;;;;;7.83;1.23;;;;;;;5.61;100.00;99855.00;5051260;28;20565;-92
2024/01/01 04:51:43;;;;;;;7.83;1.20;;;;;;;5.65;100.00;99846.53;5047522;28;20033;-93
2024/01/01 04:54:08;;;;;;;7.67;1.30;;;;;;;5.61;100.00;99852.34;5050726;28;20025;-94
2024/01/01 04:56:33;;;;;;;7.00;1.33;;;;;;;5.53;100.00;99858.06;5050921;28;20447;-93
2024/01/01 04:58:59;;;;;;;11.27;1.70;;;;;;;5.52;100.00;99867.09;5050895;28;20102;-92
2024/01/01 05:01:26;;;;;;;15.47;1.43;;;;;;;5.49;100.00;99859.63;5050379;28;20025;-92
2024/01/01 05:03:51;;;;;;;10.00;1.30;;;;;;;5.54;100.00;99870.31;5050941;28;20147;-92
2024/01/01 05:06:17;;;;;;;8.67;1.40;;;;;;;5.51;100.00;99854.84;5059179;28;20044;-92
2024/01/01 05:08:42;;;;;;;13.15;1.17;;;;;;;5.57;100.00;99875.13;5061599;28;20120;-92
2024/01/01 05:11:08;;;;;;;10.60;1.20;;;;;;;5.64;100.00;99868.84;5060532;28;20106;-92
2024/01/01 05:13:33;;;;;;;15.30;1.50;;;;;;;5.68;100.00;99864.63;5056432;28;20094;-93
2024/01/01 05:15:58;;;;;;;7.03;1.10;;;;;;;5.63;100.00;99864.56;5049510;28;20023;-92
2024/01/01 05:18:24;;;;;;;12.63;1.43;;;;;;;5.62;100.00;99866.41;5051013;28;20025;-92
2024/01/01 05:20:49;;;;;;;9.27;1.40;;;;;;;5.64;100.00;99874.16;5049743;28;20456;-92
2024/01/01 05:23:14;;;;;;;10.13;1.83;;;;;;;5.59;100.00;99873.03;5050973;28;20419;-93
2024/01/01 05:25:40;;;;;;;6.40;0.90;;;;;;;5.66;100.00;99872.06;5045130;28;20469;-94
2024/01/01 05:28:07;;;;;;;14.27;1.70;;;;;;;5.57;100.00;99869.81;5041770;28;20025;-92
2024/01/01 05:30:35;;;;;;;11.32;1.30;;;;;;;5.66;100.00;99878.16;5054848;28;20028;-95
2024/01/01 05:33:00;;;;;;;7.35;1.30;;;;;;;5.70;100.00;99886.44;5055107;28;20025;-92
2024/01/01 05:35:26;;;;;;;9.40;1.20;;;;;;;5.75;100.00;99881.19;5053212;28;20021;-93
2024/01/01 05:37:52;;;;;;;8.80;1.60;;;;;;;5.76;100.00;99891.56;5054516;28;20025;-94
2024/01/01 05:40:17;;;;;;;15.73;1.50;;;;;;;5.75;100.00;99879.31;5053776;28;20100;-93
2024/01/01 05:42:42;;;;;;;12.73;1.50;;;;;;;5.71;100.00;99882.72;5051583;28;20040;-94
2024/01/01 05:45:08;;;;;;;12.80;1.47;;;;;;;5.79;100.00;99906.22;5054340;28;20159;-94
2024/01/01 05:47:33;;;;;;;9.63;1.05;;;;;;;5.74;100.00;99900.84;5054241;28;20131;-93
2024/01/01 05:49:58;;;;;;;10.77;1.37;;;;;;;5.78;100.00;99912.59;5056341;28;20036;-94
2024/01/01 05:52:24;;;;;;;9.83;1.40;;;;;;;5.74;100.00;99911.47;5066692;28;20033;-94
2024/01/01 05:54:49;;;;;;;9.83;1.03;;;;;;;5.68;100.00;99907.97;5065330;28;20028;-94
2024/01/01 05:57:14;;;;;;;7.27;1.30;;;;;;;5.52;100.00;99906.16;5062586;28;20431;-93
2024/01/01 05:59:40;;;;;;;10.05;1.83;;;;;;;5.47;100.00;99909.56;5063521;28;20036;-93
2024/01/01 06:02:05;;;;;;;7.60;0.97;;;;;;;5.39;100.00;99913.44;5054990;28;20027;-93
2024/01/01 06:04:30;;;;;;;11.50;1.20;;;;;;;5.35;100.00;99914.16;5052565;28;20068;-93
2024/01/01 06:06:56;;;;;;;12.03;1.60;;;;;;;5.43;100.00;99922.53;5071960;28;20028;-95
2024/01/01 06:09:22;;;;;;;9.10;1.53;;;;;;;5.48;100.00;99935.06;5066859;28;20060;-95
2024/01/01 06:11:48;;;;;;;9.45;1.38;;;;;;;5.49;100.00;99923.38;5050239;28;20121;-94
2024/01/01 06:14:14;;;;;;;10.93;1.50;;;;;;;5.49;100.00;99922.59;5053736;28;20590;-93
2024/01/01 06:16:40;;;;;;;13.32;1.67;;;;;;;5.50;100.00;99932.97;5052589;28;20603;-94
2024/01/01 06:19:07;;;;;;;9.10;2.08;;;;;;;5.52;100.00;99933.53;5052928;28;20029;-94
2024/01/01 06:21:32;;;;;;;15.77;2.00;;;;;;;5.64;100.00;99945.94;5053078;28;20033;-94
2024/01/01 06:23:57;;;;;;;7.27;1.10;;;;;;;5.66;100.00;99939.31;5054881;28;20283;-96
2024/01/01 06:26:23;;;;;;;13.80;1.50;;;;;;;5.57;100.00;99946.91;5055122;28;20039;-95
2024/01/01 06:28:48;;;;;;;9.70;1.23;;;;;;;5.56;100.00;99952.47;5055653;28;20048;-94
2024/01/01 06:31:13;;;;;;;14.50;1.83;;;;;;;5.52;100.00;99951.34;5059155;28;20036;-95
2024/01/01 06:33:39;;;;;;;8.63;1.55;;;;;;;5.56;100.00;99971.88;5052953;28;20123;-95
2024/01/01 06:36:04;;;;;;;8.53;0.97;;;;;;;5.44;100.00;99961.34;5053554;28;20021;-96
2024/01/01 06:38:29;;;;;;;9.03;1.50;;;;;;;5.34;100.00;99968.34;5054666;28;20017;-94
2024/01/01 06:40:55;;;;;;;10.93;1.47;;;;;;;5.24;100.00;99963.69;5066746;28;20142;-94
2024/01/01 06:43:28;;;;;;;10.70;1.47;;;;;;;5.11;100.00;99978.13;5062802;28;20668;-95
2024/01/01 06:45:53;;;;;;;9.15;1.30;;;;;;;4.97;100.00;99975.78;5071064;28;20043;-95
2024/01/01 06:48:18;;;;;;;12.23;1.60;;;;;;;5.08;100.00;99990.03;5061592;28;20028;-94
2024/01/01 06:50:44;;;;;;;9.18;1.50;;;;;;;5.08;100.00;99989.22;5053584;28;20021;-94
2024/01/01 06:53:09;;;;;;;6.80;1.13;;;;;;;5.13;100.00;99997.25;5053992;28;20017;-95
2024/01/01 06:55:34;;;;;;;12.90;1.23;;;;;;;5.21;100.00;99991.56;5042318;28;20038;-96
2024/01/01 06:58:00;;;;;;;13.07;1.40;;;;;;;5.28;100.00;99999.34;5036980;28;20049;-96
2024/01/01 07:00:25;;;;;;;10.40;1.48;;;;;;;5.39;100.00;100005.63;5054936;28;20021;-95
2024/01/01 07:02:51;;;;;;;9.43;1.20;;;;;;;5.42;100.00;100005.94;5056686;28;20032;-95
2024/01/01 07:05:16;;;;;;;8.80;1.57;;;;;;;5.45;100.00;100008.13;5056723;28;20025;-94
2024/01/01 07:07:42;;;;;;;9.90;1.30;;;;;;;5.54;100.00;100008.50;5056185;28;20024;-96
2024/01/01 07:10:07;;;;;;;13.80;2.10;;;;;;;5.55;100.00;100026.06;5055440;28;20045;-94
2024/01/01 07:12:33;;;;;;;8.73;1.10;;;;;;;5.55;100.00;100020.75;5057282;28;20088;-95
2024/01/01 07:15:00;;;;;;;6.22;1.15;;;;;;;5.53;100.00;100028.16;5057425;28;20111;-96
2024/01/01 07:17:27;;;;;;;11.63;1.43;;;;;;;5.46;100.00;100032.84;5068944;28;20092;-95
2024/01/01 07:19:53;;;;;;;11.63;1.50;;;;;;;5.49;100.00;100036.88;5074472;28;20271;-94
2024/01/01 07:22:19;;;;;;;9.75;1.10;;;;;;;5.49;100.00;100031.56;5073496;28;20036;-93
2024/01/01 07:24:45;;;;;;;12.90;1.45;;;;;;;5.46;100.00;100032.84;5053832;28;20021;-94
2024/01/01 07:27:11;;;;;;;11.20;1.50;;;;;;;5.22;100.00;99998.47;5050063;28;20056;-92
2024/01/01 07:29:37;;;;;;;6.90;1.23;;;;;;;5.40;100.00;100047.88;5039492;28;20029;-90
2024/01/01 07:32:04;;;;;;;8.95;1.35;;;;;;;5.25;100.00;100047.66;5040489;28;20137;-91
2024/01/01 07:34:30;;;;;;;10.27;1.43;;;;;;;5.19;100.00;100046.78;5038452;28;20021;-90
2024/01/01 07:36:57;;;;;;;10.50;1.50;;;;;;;5.07;100.00;100040.75;5043365;28;20299;-91
2024/01/01 07:39:23;;;;;;;12.98;2.03;;;;;;;5.06;100.00;100055.06;5064461;28;20024;-91
2024/01/01 07:41:49;;;;;;;11.00;1.60;;;;;;;5.04;100.00;100059.81;5067173;28;20190;-93
2024/01/01 07:44:15;;;;;;;14.98;2.42;;;;;;;5.00;100.00;100056.81;5079985;28;20024;-92
2024/01/01 07:46:45;;;;;;;12.43;1.53;;;;;;;4.99;100.00;100066.63;5093201;28;20025;-93
2024/01/01 07:49:11;;;;;;;10.23;1.38;;;;;;;4.89;100.00;100063.81;5094176;28;20024;-93
2024/01/01 07:51:36;;;;;;;8.87;1.40;;;;;;;4.90;100.00;100064.59;5078133;28;20033;-93
2024/01/01 07:54:01;;;;;;;9.63;1.77;;;;;;;4.88;100.00;100054.22;5064653;28;20471;-93
2024/01/01 07:56:27;;;;;;;10.87;1.60;;;;;;;4.91;100.00;100067.03;5067326;28;20076;-93
2024/01/01 07:58:53;;;;;;;5.55;1.20;;;;;;;4.98;100.00;100070.31;5056294;28;20039;-92
2024/01/01 08:01:19;;;;;;;10.63;1.30;;;;;;;5.00;100.00;100078.84;5042408;28;20029;-93
2024/01/01 08:03:44;;;;;;;10.48;1.20;;;;;;;4.95;100.00;100086.72;5087241;28;20433;-91
2024/01/01 08:06:10;;;;;;;10.83;2.53;;;;;;;4.91;100.00;100096.25;5038830;28;20041;-91
2024/01/01 08:08:35;;;;;;;12.40;1.55;;;;;;;4.82;100.00;100085.19;5039378;28;20021;-92
2024/01/01 08:11:01;;;;;;;18.23;1.60;;;;;;;4.81;100.00;100098.69;5051991;28;20090;-93
2024/01/01 08:13:26;;;;;;;9.50;1.70;;;;;;;4.77;100.00;100106.31;5055449;28;20040;-92
2024/01/01 08:15:51;;;;;;;8.63;1.40;;;;;;;4.81;100.00;100115.44;5056633;28;20712;-92
2024/01/01 08:18:17;;;;;;;12.10;1.80;;;;;;;4.85;100.00;100103.28;5057664;28;20060;-92
2024/01/01 08:20:43;;;;;;;8.47;1.43;;;;;;;4.92;100.00;100119.09;5058375;28;20089;-92
2024/01/01 08:23:09;;;;;;;11.07;1.50;;;;;;;5.03;100.00;100122.72;5056255;28;20021;-92
2024/01/01 08:25:34;;;;;;;10.93;1.30;;;;;;;5.00;100.00;100121.34;5072213;28;20271;-93
2024/01/01 08:28:00;;;;;;;10.20;1.90;;;;;;;5.16;100.00;100126.94;5072537;28;20021;-93
2024/01/01 08:30:25;;;;;;;13.75;1.73;;;;;;;5.25;100.00;100120.19;5070873;28;20031;-93
2024/01/01 08:32:50;;;;;;;10.90;1.47;;;;;;;5.36;100.00;100136.31;5060194;28;20116;-92
2024/01/01 08:35:15;;;;;;;13.73;1.73;;;;;;;5.38;100.00;100128.91;5053783;28;20370;-92
2024/01/01 08:37:42;;;;;;;10.47;1.20;;;;;;;5.45;100.00;100145.50;5053009;28;20548;-91
2024/01/01 08:40:09;;;;;;;13.00;1.75;;;;;;;5.41;100.00;100131.09;5054434;28;20036;-92
2024/01/01 08:42:35;;;;;;;11.07;1.63;;;;;;;5.48;100.00;100158.28;5054450;28;20029;-91
2024/01/01 08:45:02;;;;;;;10.17;1.73;;;;;;;5.49;100.00;100159.91;5055357;28;20024;-92
2024/01/01 08:47:27;;;;;;;14.88;1.80;;;;;;;5.55;100.00;100147.53;5052682;28;20119;-92
2024/01/01 08:49:53;;;;;;;10.60;1.57;;;;;;;5.64;100.00;100158.56;5047606;28;20178;-91
2024/01/01 08:52:18;;;;;;;11.10;1.75;;;;;;;5.67;100.00;100161.53;5050594;28;20027;-90
2024/01/01 08:54:43;;;;;;;8.27;1.47;;;;;;;5.67;100.00;100166.03;5049938;28;20424;-91
2024/01/01 08:57:09;;;;;;;8.37;2.10;;;;;;;5.54;100.00;100156.53;5047819;28;20024;-92
2024/01/01 08:59:34;;;;;;;16.03;2.40;;;;;;;5.63;100.00;100175.56;5049182;28;20021;-92
2024/01/01 09:01:59;;;;;;;11.30;1.63;;;;;;;5.58;100.00;100173.59;5055768;28;20029;-91
2024/01/01 09:04:25;;;;;;;15.53;1.80;;;;;;;5.53;100.00;100171.66;5053179;28;20115;-91
2024/01/01 09:06:50;;;;;;;11.07;1.40;;;;;;;5.54;100.00;100173.28;5051818;28;20484;-92
2024/01/01 09:09:16;;;;;;;10.47;1.90;;;;;;;5.53;100.00;100181.50;5054998;28;20349;-90
2024/01/01 09:11:41;;;;;;;10.13;1.80;;;;;;;5.54;100.00;100189.22;5050255;28;20119;-91
2024/01/01 09:14:07;;;;;;;10.98;2.10;;;;;;;5.48;100.00;100174.22;5050665;28;20074;-90
2024/01/01 09:16:33;;;;;;;7.17;1.70;;;;;;;5.57;100.00;100188.75;5047603;28;20029;-91
2024/01/01 09:19:01;;;;;;;12.50;2.57;;;;;;;5.60;100.00;100188.28;5061245;28;20021;-92
2024/01/01 09:21:27;;;;;;;12.50;1.70;;;;;;;5.64;100.00;100182.50;5048494;28;20027;-92
2024/01/01 09:23:59;;;;;;;11.97;1.63;;;;;;;5.73;100.00;100192.47;5049754;28;20125;-91
2024/01/01 09:26:24;;;;;;;14.77;1.70;;;;;;;5.81;100.00;100209.06;5049788;28;20049;-91
2024/01/01 09:28:50;;;;;;;15.30;1.90;;;;;;;5.82;100.00;100219.47;5045687;28;20063;-92
2024/01/01 09:31:15;;;;;;;10.50;1.75;;;;;;;5.79;100.00;100217.31;5049441;28;20052;-91
2024/01/01 09:33:40;;;;;;;9.90;1.53;;;;;;;5.76;100.00;100218.56;5049808;28;20040;-92
2024/01/01 09:36:06;;;;;;;14.27;1.60;;;;;;;5.66;100.00;100229.03;5049561;28;20400;-90
2024/01/01 09:38:32;;;;;;;7.90;1.80;;;;;;;5.59;100.00;100239.00;5053820;28;20033;-89
2024/01/01 09:40:58;;;;;;;9.87;1.47;;;;;;;5.52;100.00;100244.47;5049844;28;20028;-90
2024/01/01 09:43:23;;;;;;;13.68;1.67;;;;;;;5.56;100.00;100234.19;5049746;28;20477;-90
2024/01/01 09:45:49;;;;;;;13.20;1.57;;;;;;;5.55;100.00;100244.00;5047121;28;20030;-88
2024/01/01 09:48:14;;;;;;;12.73;1.73;;;;;;;5.57;100.00;100252.53;5051626;28;20025;-89
2024/01/01 09:50:42;;;;;;;13.70;1.77;;;;;;;5.59;100.00;100247.81;5049477;28;20040;-89
2024/01/01 09:53:07;;;;;;;13.02;1.80;;;;;;;5.54;100.00;100236.28;5050103;28;20032;-89
2024/01/01 09:55:32;;;;;;;8.50;1.77;;;;;;;5.54;100.00;100247.69;5050281;28;20025;-88
2024/01/01 09:57:58;;;;;;;11.87;1.83;;;;;;;5.54;100.00;100260.19;5049661;28;20134;-89
2024/01/01 10:00:23;;;;;;;14.10;2.40;;;;;;;5.56;100.00;100261.56;5048881;28;20280;-88
2024/01/01 10:02:49;;;;;;;11.30;2.20;;;;;;;5.69;100.00;100270.28;5048811;28;20017;-89
2024/01/01 10:05:16;;;;;;;20.40;2.10;;;;;;;5.71;100.00;100261.03;5049744;28;20021;-89
2024/01/01 10:07:41;;;;;;;16.65;2.00;;;;;;;5.79;100.00;100270.47;5049485;28;20070;-89
2024/01/01 10:10:08;;;;;;;16.73;2.20;;;;;;;5.89;100.00;100267.19;5046841;28;20544;-90
2024/01/01 10:12:33;;;;;;;16.17;2.00;;;;;;;5.91;100.00;100273.88;5050589;28;20091;-89
2024/01/01 10:14:59;;;;;;;14.07;2.07;;;;;;;5.89;100.00;100275.16;5047812;28;20025;-90
2024/01/01 10:17:25;;;;;;;9.77;1.60;;;;;;;5.85;100.00;100266.84;5053161;28;20090;-90
2024/01/01 10:19:56;;;;;;;14.73;1.80;;;;;;;5.84;100.00;100283.84;5052582;28;20032;-90
2024/01/01 10:22:28;;;;;;;11.10;1.90;;;;;;;5.74;100.00;100273.03;5058132;28;20138;-89
2024/01/01 10:25:08;;;;;;;9.95;2.25;;;;;;;5.69;100.00;100286.22;5062769;28;20148;-89
2024/01/01 10:27:35;;;;;;;14.85;2.00;;;;;;;5.73;100.00;100271.41;5043433;28;20017;-89
2024/01/01 10:30:02;;;;;;;15.95;1.95;;;;;;;5.86;100.00;100276.44;5066201;28;20025;-90
2024/01/01 10:32:29;;;;;;;19.20;2.57;;;;;;;6.09;100.00;100290.69;5069773;28;20025;-91
2024/01/01 10:34:56;;;;;;;15.68;2.25;;;;;;;6.16;100.00;100294.00;5067644;28;20082;-89
2024/01/01 10:37:23;;;;;;;16.58;2.38;;;;;;;6.38;100.00;100303.09;5072833;28;20035;-89
2024/01/01 10:39:50;;;;;;;12.65;2.28;;;;;;;6.51;100.00;100302.78;5065974;28;20029;-90
2024/01/01 10:42:16;;;;;;;12.98;2.72;;;;;;;6.73;100.00;100288.72;5066354;28;20040;-90
2024/01/01 10:44:41;;;;;;;17.07;2.83;;;;;;;6.92;100.00;100298.03;5069646;28;20024;-92
2024/01/01 10:47:11;;;;;;;12.93;2.88;;;;;;;7.04;100.00;100305.91;5065318;28;20102;-91
2024/01/01 10:49:49;;;;;;;10.97;2.47;;;;;;;7.01;100.00;100309.06;5057307;28;20069;-91
2024/01/01 10:52:44;;;;;;;13.65;2.78;;;;;;;6.95;100.00;100312.69;5051299;28;20040;-92
2024/01/01 10:55:31;;;;;;;14.77;2.67;;;;;;;6.72;100.00;100306.56;5062014;28;20375;-94
2024/01/01 10:58:11;;;;;;;17.13;2.78;;;;;;;6.55;100.00;100305.78;5059088;28;20044;-92
2024/01/01 11:00:46;;;;;;;13.40;2.00;;;;;;;6.46;100.00;100314.16;5053587;28;20041;-91
2024/01/01 11:03:15;;;;;;;15.67;2.33;;;;;;;6.41;100.00;100311.41;5056585;28;20036;-91
2024/01/01 11:05:41;;;;;;;15.68;2.17;;;;;;;6.30;100.00;100306.97;5061812;28;20021;-91
2024/01/01 11:08:06;;;;;;;13.43;2.70;;;;;;;6.15;100.00;100305.69;5054540;28;20033;-90
2024/01/01 11:10:40;;;;;;;18.53;2.00;;;;;;;6.12;100.00;100326.63;5053325;28;20439;-93
2024/01/01 11:13:11;;;;;;;18.45;2.95;;;;;;;6.10;100.00;100321.56;5037510;28;20373;-93
2024/01/01 11:15:41;;;;;;;17.63;2.28;;;;;;;6.09;100.00;100317.28;5053700;28;20082;-91
2024/01/01 11:18:15;;;;;;;17.52;2.50;;;;;;;6.15;100.00;100321.66;5053276;28;20079;-90
2024/01/01 11:20:47;;;;;;;11.60;1.70;;;;;;;6.23;100.00;100333.75;5052897;28;20025;-89